sensor_id;sensor_type;location;lat;lon;timestamp;P1;durP1;ratioP1;P2;durP2;ratioP2
462;SDS011;218;51.902;9.542;2023-05-19T00:00:01;3.17;;;2.90;;
462;SDS011;218;51.902;9.542;2023-05-19T00:02:29;4.00;;;2.60;;
462;SDS011;218;51.902;9.542;2023-05-19T00:04:57;4.20;;;2.87;;
462;SDS011;218;51.902;9.542;2023-05-19T00:07:25;3.53;;;2.80;;
462;SDS011;218;51.902;9.542;2023-05-19T00:09:56;2.53;;;2.43;;
462;SDS011;218;51.902;9.542;2023-05-19T00:12:23;2.65;;;2.40;;
462;SDS011;218;51.902;9.542;2023-05-19T00:14:51;3.00;;;2.30;;
462;SDS011;218;51.902;9.542;2023-05-19T00:17:18;3.60;;;3.40;;
462;SDS011;218;51.902;9.542;2023-05-19T00:19:46;3.30;;;3.10;;
462;SDS011;218;51.902;9.542;2023-05-19T00:22:14;2.90;;;2.15;;
462;SDS011;218;51.902;9.542;2023-05-19T00:24:43;2.60;;;2.50;;
462;SDS011;218;51.902;9.542;2023-05-19T00:27:11;3.63;;;2.80;;
462;SDS011;218;51.902;9.542;2023-05-19T00:29:39;2.80;;;2.40;;
462;SDS011;218;51.902;9.542;2023-05-19T00:32:06;4.25;;;2.30;;
462;SDS011;218;51.902;9.542;2023-05-19T00:34:34;2.90;;;2.63;;
462;SDS011;218;51.902;9.542;2023-05-19T00:37:01;2.72;;;2.53;;
462;SDS011;218;51.902;9.542;2023-05-19T00:39:28;2.90;;;2.70;;
462;SDS011;218;51.902;9.542;2023-05-19T00:41:55;2.80;;;2.60;;
462;SDS011;218;51.902;9.542;2023-05-19T00:44:24;3.10;;;2.80;;
462;SDS011;218;51.902;9.542;2023-05-19T00:46:51;3.97;;;3.67;;
462;SDS011;218;51.902;9.542;2023-05-19T00:49:18;4.53;;;2.65;;
462;SDS011;218;51.902;9.542;2023-05-19T00:51:45;2.88;;;2.58;;
462;SDS011;218;51.902;9.542;2023-05-19T00:54:13;3.60;;;2.60;;
462;SDS011;218;51.902;9.542;2023-05-19T00:56:40;2.72;;;2.63;;
462;SDS011;218;51.902;9.542;2023-05-19T00:59:07;2.97;;;2.33;;
462;SDS011;218;51.902;9.542;2023-05-19T01:01:36;3.45;;;2.35;;
462;SDS011;218;51.902;9.542;2023-05-19T01:04:04;3.45;;;2.80;;
462;SDS011;218;51.902;9.542;2023-05-19T01:06:33;2.60;;;2.50;;
462;SDS011;218;51.902;9.542;2023-05-19T01:09:01;3.05;;;2.70;;
462;SDS011;218;51.902;9.542;2023-05-19T01:11:28;2.40;;;2.20;;
462;SDS011;218;51.902;9.542;2023-05-19T01:13:56;2.67;;;2.47;;
462;SDS011;218;51.902;9.542;2023-05-19T01:16:23;2.83;;;2.60;;
462;SDS011;218;51.902;9.542;2023-05-19T01:18:55;2.40;;;2.20;;
462;SDS011;218;51.902;9.542;2023-05-19T01:21:35;2.83;;;2.40;;
462;SDS011;218;51.902;9.542;2023-05-19T01:24:12;2.90;;;2.70;;
462;SDS011;218;51.902;9.542;2023-05-19T01:26:52;4.43;;;2.50;;
462;SDS011;218;51.902;9.542;2023-05-19T01:29:28;2.40;;;2.20;;
462;SDS011;218;51.902;9.542;2023-05-19T01:31:59;2.90;;;2.70;;
462;SDS011;218;51.902;9.542;2023-05-19T01:34:27;3.75;;;2.80;;
462;SDS011;218;51.902;9.542;2023-05-19T01:36:55;2.73;;;2.53;;
462;SDS011;218;51.902;9.542;2023-05-19T01:39:24;3.88;;;2.67;;
462;SDS011;218;51.902;9.542;2023-05-19T01:41:51;2.80;;;2.55;;
462;SDS011;218;51.902;9.542;2023-05-19T01:44:19;2.70;;;2.50;;
462;SDS011;218;51.902;9.542;2023-05-19T01:46:47;4.00;;;2.45;;
462;SDS011;218;51.902;9.542;2023-05-19T01:49:16;2.92;;;2.72;;
462;SDS011;218;51.902;9.542;2023-05-19T01:51:43;3.88;;;2.70;;
462;SDS011;218;51.902;9.542;2023-05-19T01:54:10;5.50;;;3.30;;
462;SDS011;218;51.902;9.542;2023-05-19T01:56:40;2.30;;;2.20;;
462;SDS011;218;51.902;9.542;2023-05-19T01:59:11;2.70;;;2.50;;
462;SDS011;218;51.902;9.542;2023-05-19T02:01:41;3.70;;;3.50;;
462;SDS011;218;51.902;9.542;2023-05-19T02:04:18;3.00;;;2.70;;
462;SDS011;218;51.902;9.542;2023-05-19T02:06:48;2.70;;;2.50;;
462;SDS011;218;51.902;9.542;2023-05-19T02:09:17;3.22;;;2.50;;
462;SDS011;218;51.902;9.542;2023-05-19T02:11:48;2.70;;;2.00;;
462;SDS011;218;51.902;9.542;2023-05-19T02:14:19;3.37;;;3.10;;
462;SDS011;218;51.902;9.542;2023-05-19T02:16:47;2.90;;;2.70;;
462;SDS011;218;51.902;9.542;2023-05-19T02:19:22;3.30;;;2.58;;
462;SDS011;218;51.902;9.542;2023-05-19T02:21:50;3.90;;;2.57;;
462;SDS011;218;51.902;9.542;2023-05-19T02:24:17;3.13;;;2.93;;
462;SDS011;218;51.902;9.542;2023-05-19T02:26:46;2.70;;;2.50;;
462;SDS011;218;51.902;9.542;2023-05-19T02:29:14;3.75;;;3.00;;
462;SDS011;218;51.902;9.542;2023-05-19T02:31:41;2.30;;;2.10;;
462;SDS011;218;51.902;9.542;2023-05-19T02:34:08;3.40;;;3.10;;
462;SDS011;218;51.902;9.542;2023-05-19T02:36:38;3.60;;;3.30;;
462;SDS011;218;51.902;9.542;2023-05-19T02:39:07;3.58;;;2.50;;
462;SDS011;218;51.902;9.542;2023-05-19T02:41:34;3.23;;;3.03;;
462;SDS011;218;51.902;9.542;2023-05-19T02:44:02;3.17;;;2.70;;
462;SDS011;218;51.902;9.542;2023-05-19T02:46:29;2.88;;;2.58;;
462;SDS011;218;51.902;9.542;2023-05-19T02:48:56;3.97;;;2.53;;
462;SDS011;218;51.902;9.542;2023-05-19T02:51:24;2.80;;;2.60;;
462;SDS011;218;51.902;9.542;2023-05-19T02:53:52;2.70;;;2.60;;
462;SDS011;218;51.902;9.542;2023-05-19T02:56:19;2.45;;;2.25;;
462;SDS011;218;51.902;9.542;2023-05-19T02:58:47;3.10;;;2.47;;
462;SDS011;218;51.902;9.542;2023-05-19T03:01:14;2.90;;;2.70;;
462;SDS011;218;51.902;9.542;2023-05-19T03:03:41;3.30;;;2.88;;
462;SDS011;218;51.902;9.542;2023-05-19T03:06:09;2.60;;;2.40;;
462;SDS011;218;51.902;9.542;2023-05-19T03:08:36;3.45;;;2.40;;
462;SDS011;218;51.902;9.542;2023-05-19T03:11:05;3.40;;;3.10;;
462;SDS011;218;51.902;9.542;2023-05-19T03:13:32;2.72;;;2.53;;
462;SDS011;218;51.902;9.542;2023-05-19T03:16:00;4.20;;;3.80;;
462;SDS011;218;51.902;9.542;2023-05-19T03:18:27;2.67;;;2.53;;
462;SDS011;218;51.902;9.542;2023-05-19T03:20:54;4.25;;;3.25;;
462;SDS011;218;51.902;9.542;2023-05-19T03:23:21;2.80;;;2.60;;
462;SDS011;218;51.902;9.542;2023-05-19T03:25:49;2.80;;;2.60;;
462;SDS011;218;51.902;9.542;2023-05-19T03:28:19;3.00;;;2.80;;
462;SDS011;218;51.902;9.542;2023-05-19T03:30:47;3.00;;;2.80;;
462;SDS011;218;51.902;9.542;2023-05-19T03:33:15;2.70;;;2.50;;
462;SDS011;218;51.902;9.542;2023-05-19T03:35:42;3.20;;;2.92;;
462;SDS011;218;51.902;9.542;2023-05-19T03:38:09;3.25;;;3.05;;
462;SDS011;218;51.902;9.542;2023-05-19T03:40:36;2.97;;;2.67;;
462;SDS011;218;51.902;9.542;2023-05-19T03:43:05;3.40;;;3.10;;
462;SDS011;218;51.902;9.542;2023-05-19T03:45:34;3.73;;;2.93;;
462;SDS011;218;51.902;9.542;2023-05-19T03:48:01;4.35;;;3.28;;
462;SDS011;218;51.902;9.542;2023-05-19T03:50:31;5.15;;;2.90;;
462;SDS011;218;51.902;9.542;2023-05-19T03:52:58;3.70;;;3.50;;
462;SDS011;218;51.902;9.542;2023-05-19T03:55:25;3.83;;;3.43;;
462;SDS011;218;51.902;9.542;2023-05-19T03:57:54;3.05;;;2.85;;
462;SDS011;218;51.902;9.542;2023-05-19T04:00:21;2.90;;;2.60;;
462;SDS011;218;51.902;9.542;2023-05-19T04:02:50;3.80;;;3.17;;
462;SDS011;218;51.902;9.542;2023-05-19T04:05:17;5.33;;;3.20;;
462;SDS011;218;51.902;9.542;2023-05-19T04:07:44;3.20;;;2.75;;
462;SDS011;218;51.902;9.542;2023-05-19T04:10:12;3.53;;;3.27;;
462;SDS011;218;51.902;9.542;2023-05-19T04:12:39;3.05;;;2.72;;
462;SDS011;218;51.902;9.542;2023-05-19T04:15:06;4.43;;;4.03;;
462;SDS011;218;51.902;9.542;2023-05-19T04:17:35;2.85;;;2.65;;
462;SDS011;218;51.902;9.542;2023-05-19T04:20:04;4.60;;;2.97;;
462;SDS011;218;51.902;9.542;2023-05-19T04:22:32;3.37;;;3.03;;
462;SDS011;218;51.902;9.542;2023-05-19T04:24:59;2.95;;;2.63;;
462;SDS011;218;51.902;9.542;2023-05-19T04:27:28;3.00;;;2.80;;
462;SDS011;218;51.902;9.542;2023-05-19T04:29:56;2.85;;;2.65;;
462;SDS011;218;51.902;9.542;2023-05-19T04:32:23;3.60;;;3.00;;
462;SDS011;218;51.902;9.542;2023-05-19T04:34:50;2.93;;;2.73;;
462;SDS011;218;51.902;9.542;2023-05-19T04:37:19;3.38;;;3.10;;
462;SDS011;218;51.902;9.542;2023-05-19T04:39:46;3.13;;;2.93;;
462;SDS011;218;51.902;9.542;2023-05-19T04:42:13;3.53;;;3.23;;
462;SDS011;218;51.902;9.542;2023-05-19T04:44:43;3.20;;;2.95;;
462;SDS011;218;51.902;9.542;2023-05-19T04:47:10;3.43;;;3.13;;
462;SDS011;218;51.902;9.542;2023-05-19T04:49:39;7.27;;;4.20;;
462;SDS011;218;51.902;9.542;2023-05-19T04:52:06;3.70;;;3.20;;
462;SDS011;218;51.902;9.542;2023-05-19T04:54:36;5.50;;;3.40;;
462;SDS011;218;51.902;9.542;2023-05-19T04:57:03;3.63;;;3.30;;
462;SDS011;218;51.902;9.542;2023-05-19T04:59:31;4.00;;;3.47;;
462;SDS011;218;51.902;9.542;2023-05-19T05:01:58;3.07;;;2.87;;
462;SDS011;218;51.902;9.542;2023-05-19T05:04:25;3.17;;;2.88;;
462;SDS011;218;51.902;9.542;2023-05-19T05:06:53;2.90;;;2.70;;
462;SDS011;218;51.902;9.542;2023-05-19T05:09:20;3.75;;;3.45;;
462;SDS011;218;51.902;9.542;2023-05-19T05:11:49;3.33;;;3.17;;
462;SDS011;218;51.902;9.542;2023-05-19T05:14:16;3.53;;;3.23;;
462;SDS011;218;51.902;9.542;2023-05-19T05:16:44;3.33;;;3.00;;
462;SDS011;218;51.902;9.542;2023-05-19T05:19:11;3.67;;;3.37;;
462;SDS011;218;51.902;9.542;2023-05-19T05:21:39;4.28;;;3.30;;
462;SDS011;218;51.902;9.542;2023-05-19T05:24:07;4.55;;;3.90;;
462;SDS011;218;51.902;9.542;2023-05-19T05:26:35;3.87;;;3.57;;
462;SDS011;218;51.902;9.542;2023-05-19T05:29:03;3.90;;;3.47;;
462;SDS011;218;51.902;9.542;2023-05-19T05:31:31;4.20;;;3.80;;
462;SDS011;218;51.902;9.542;2023-05-19T05:33:58;5.90;;;5.30;;
462;SDS011;218;51.902;9.542;2023-05-19T05:36:25;4.23;;;3.83;;
462;SDS011;218;51.902;9.542;2023-05-19T05:38:52;4.53;;;4.13;;
462;SDS011;218;51.902;9.542;2023-05-19T05:41:20;5.90;;;4.38;;
462;SDS011;218;51.902;9.542;2023-05-19T05:43:47;4.37;;;4.03;;
462;SDS011;218;51.902;9.542;2023-05-19T05:46:15;4.67;;;4.10;;
462;SDS011;218;51.902;9.542;2023-05-19T05:48:43;3.63;;;3.33;;
462;SDS011;218;51.902;9.542;2023-05-19T05:51:10;3.67;;;3.37;;
462;SDS011;218;51.902;9.542;2023-05-19T05:53:39;3.60;;;3.40;;
462;SDS011;218;51.902;9.542;2023-05-19T05:56:08;3.50;;;3.30;;
462;SDS011;218;51.902;9.542;2023-05-19T05:58:36;4.50;;;4.10;;
462;SDS011;218;51.902;9.542;2023-05-19T06:01:04;7.63;;;4.50;;
462;SDS011;218;51.902;9.542;2023-05-19T06:03:36;4.17;;;3.77;;
462;SDS011;218;51.902;9.542;2023-05-19T06:06:04;5.70;;;4.50;;
462;SDS011;218;51.902;9.542;2023-05-19T06:08:31;4.13;;;3.60;;
462;SDS011;218;51.902;9.542;2023-05-19T06:10:58;4.53;;;3.97;;
462;SDS011;218;51.902;9.542;2023-05-19T06:13:25;4.13;;;3.70;;
462;SDS011;218;51.902;9.542;2023-05-19T06:15:53;4.87;;;4.33;;
462;SDS011;218;51.902;9.542;2023-05-19T06:18:20;4.50;;;4.20;;
462;SDS011;218;51.902;9.542;2023-05-19T06:20:48;4.40;;;4.10;;
462;SDS011;218;51.902;9.542;2023-05-19T06:23:16;5.87;;;3.80;;
462;SDS011;218;51.902;9.542;2023-05-19T06:25:43;7.10;;;5.30;;
462;SDS011;218;51.902;9.542;2023-05-19T06:28:10;5.23;;;4.53;;
462;SDS011;218;51.902;9.542;2023-05-19T06:30:37;4.80;;;4.40;;
462;SDS011;218;51.902;9.542;2023-05-19T06:33:04;4.47;;;4.13;;
462;SDS011;218;51.902;9.542;2023-05-19T06:35:32;5.63;;;4.40;;
462;SDS011;218;51.902;9.542;2023-05-19T06:38:00;6.20;;;4.60;;
462;SDS011;218;51.902;9.542;2023-05-19T06:40:27;4.30;;;4.00;;
462;SDS011;218;51.902;9.542;2023-05-19T06:42:54;4.88;;;4.38;;
462;SDS011;218;51.902;9.542;2023-05-19T06:45:22;4.73;;;4.40;;
462;SDS011;218;51.902;9.542;2023-05-19T06:47:49;6.00;;;4.57;;
462;SDS011;218;51.902;9.542;2023-05-19T06:50:18;4.77;;;4.47;;
462;SDS011;218;51.902;9.542;2023-05-19T06:52:45;5.00;;;4.57;;
462;SDS011;218;51.902;9.542;2023-05-19T06:55:13;6.60;;;4.57;;
462;SDS011;218;51.902;9.542;2023-05-19T06:57:41;4.80;;;4.50;;
462;SDS011;218;51.902;9.542;2023-05-19T07:00:08;4.83;;;4.40;;
462;SDS011;218;51.902;9.542;2023-05-19T07:02:36;5.47;;;4.97;;
462;SDS011;218;51.902;9.542;2023-05-19T07:05:04;4.67;;;4.27;;
462;SDS011;218;51.902;9.542;2023-05-19T07:07:32;9.43;;;5.10;;
462;SDS011;218;51.902;9.542;2023-05-19T07:09:59;9.10;;;4.67;;
462;SDS011;218;51.902;9.542;2023-05-19T07:12:28;6.33;;;5.27;;
462;SDS011;218;51.902;9.542;2023-05-19T07:14:56;4.73;;;4.50;;
462;SDS011;218;51.902;9.542;2023-05-19T07:17:23;4.70;;;3.90;;
462;SDS011;218;51.902;9.542;2023-05-19T07:19:50;5.30;;;4.55;;
462;SDS011;218;51.902;9.542;2023-05-19T07:22:17;5.33;;;4.60;;
462;SDS011;218;51.902;9.542;2023-05-19T07:24:45;10.27;;;4.80;;
462;SDS011;218;51.902;9.542;2023-05-19T07:27:12;6.30;;;4.70;;
462;SDS011;218;51.902;9.542;2023-05-19T07:29:41;4.57;;;4.03;;
462;SDS011;218;51.902;9.542;2023-05-19T07:32:08;9.10;;;5.00;;
462;SDS011;218;51.902;9.542;2023-05-19T07:34:35;5.83;;;4.90;;
462;SDS011;218;51.902;9.542;2023-05-19T07:37:02;6.33;;;4.60;;
462;SDS011;218;51.902;9.542;2023-05-19T07:39:29;7.20;;;5.00;;
462;SDS011;218;51.902;9.542;2023-05-19T07:41:56;4.30;;;3.73;;
462;SDS011;218;51.902;9.542;2023-05-19T07:44:24;8.20;;;4.27;;
462;SDS011;218;51.902;9.542;2023-05-19T07:46:53;4.73;;;4.33;;
462;SDS011;218;51.902;9.542;2023-05-19T07:49:20;8.57;;;4.87;;
462;SDS011;218;51.902;9.542;2023-05-19T07:51:47;5.27;;;4.10;;
462;SDS011;218;51.902;9.542;2023-05-19T07:54:15;4.53;;;4.23;;
462;SDS011;218;51.902;9.542;2023-05-19T07:56:42;5.40;;;4.60;;
462;SDS011;218;51.902;9.542;2023-05-19T07:59:09;5.13;;;4.73;;
462;SDS011;218;51.902;9.542;2023-05-19T08:01:37;4.13;;;3.73;;
462;SDS011;218;51.902;9.542;2023-05-19T08:04:05;5.07;;;4.57;;
462;SDS011;218;51.902;9.542;2023-05-19T08:06:34;5.17;;;4.27;;
462;SDS011;218;51.902;9.542;2023-05-19T08:09:02;4.57;;;4.10;;
462;SDS011;218;51.902;9.542;2023-05-19T08:11:29;5.30;;;4.80;;
462;SDS011;218;51.902;9.542;2023-05-19T08:13:58;4.67;;;3.33;;
462;SDS011;218;51.902;9.542;2023-05-19T08:16:26;4.47;;;4.17;;
462;SDS011;218;51.902;9.542;2023-05-19T08:18:56;3.80;;;3.60;;
462;SDS011;218;51.902;9.542;2023-05-19T08:21:27;4.33;;;3.93;;
462;SDS011;218;51.902;9.542;2023-05-19T08:23:55;3.87;;;3.63;;
462;SDS011;218;51.902;9.542;2023-05-19T08:26:22;4.13;;;3.83;;
462;SDS011;218;51.902;9.542;2023-05-19T08:28:50;3.83;;;3.53;;
462;SDS011;218;51.902;9.542;2023-05-19T08:31:20;4.13;;;3.73;;
462;SDS011;218;51.902;9.542;2023-05-19T08:33:48;4.23;;;3.87;;
462;SDS011;218;51.902;9.542;2023-05-19T08:36:16;4.20;;;3.97;;
462;SDS011;218;51.902;9.542;2023-05-19T08:38:44;4.50;;;3.93;;
462;SDS011;218;51.902;9.542;2023-05-19T08:41:11;4.07;;;3.67;;
462;SDS011;218;51.902;9.542;2023-05-19T08:43:39;5.13;;;3.70;;
462;SDS011;218;51.902;9.542;2023-05-19T08:46:06;4.00;;;3.37;;
462;SDS011;218;51.902;9.542;2023-05-19T08:48:33;4.13;;;3.30;;
462;SDS011;218;51.902;9.542;2023-05-19T08:51:05;7.93;;;4.10;;
462;SDS011;218;51.902;9.542;2023-05-19T08:53:36;5.53;;;4.10;;
462;SDS011;218;51.902;9.542;2023-05-19T08:56:09;3.60;;;3.30;;
462;SDS011;218;51.902;9.542;2023-05-19T08:58:38;4.33;;;3.80;;
462;SDS011;218;51.902;9.542;2023-05-19T09:01:07;4.17;;;3.80;;
462;SDS011;218;51.902;9.542;2023-05-19T09:03:35;3.50;;;3.20;;
462;SDS011;218;51.902;9.542;2023-05-19T09:06:04;3.47;;;2.87;;
462;SDS011;218;51.902;9.542;2023-05-19T09:08:32;5.10;;;2.93;;
462;SDS011;218;51.902;9.542;2023-05-19T09:11:00;4.60;;;3.00;;
462;SDS011;218;51.902;9.542;2023-05-19T09:13:28;4.30;;;3.10;;
462;SDS011;218;51.902;9.542;2023-05-19T09:15:55;4.30;;;4.00;;
462;SDS011;218;51.902;9.542;2023-05-19T09:18:23;3.30;;;3.00;;
462;SDS011;218;51.902;9.542;2023-05-19T09:20:54;3.47;;;2.90;;
462;SDS011;218;51.902;9.542;2023-05-19T09:23:25;5.90;;;3.10;;
462;SDS011;218;51.902;9.542;2023-05-19T09:25:54;3.60;;;3.30;;
462;SDS011;218;51.902;9.542;2023-05-19T09:28:22;4.67;;;3.30;;
462;SDS011;218;51.902;9.542;2023-05-19T09:30:58;3.10;;;2.80;;
462;SDS011;218;51.902;9.542;2023-05-19T09:33:26;3.80;;;3.50;;
462;SDS011;218;51.902;9.542;2023-05-19T09:35:53;5.17;;;3.47;;
462;SDS011;218;51.902;9.542;2023-05-19T09:38:21;4.13;;;3.70;;
462;SDS011;218;51.902;9.542;2023-05-19T09:40:49;3.73;;;3.43;;
462;SDS011;218;51.902;9.542;2023-05-19T09:43:17;3.10;;;2.90;;
462;SDS011;218;51.902;9.542;2023-05-19T09:45:45;3.20;;;2.90;;
462;SDS011;218;51.902;9.542;2023-05-19T09:48:14;3.20;;;3.00;;
462;SDS011;218;51.902;9.542;2023-05-19T09:50:41;4.17;;;3.87;;
462;SDS011;218;51.902;9.542;2023-05-19T09:53:11;3.40;;;2.87;;
462;SDS011;218;51.902;9.542;2023-05-19T09:55:39;3.43;;;2.60;;
462;SDS011;218;51.902;9.542;2023-05-19T09:58:07;2.77;;;2.53;;
462;SDS011;218;51.902;9.542;2023-05-19T10:00:34;3.67;;;2.37;;
462;SDS011;218;51.902;9.542;2023-05-19T10:03:03;2.17;;;1.97;;
462;SDS011;218;51.902;9.542;2023-05-19T10:05:35;3.43;;;2.20;;
462;SDS011;218;51.902;9.542;2023-05-19T10:08:07;3.87;;;3.57;;
462;SDS011;218;51.902;9.542;2023-05-19T10:10:35;4.40;;;3.37;;
462;SDS011;218;51.902;9.542;2023-05-19T10:13:03;2.50;;;2.30;;
462;SDS011;218;51.902;9.542;2023-05-19T10:15:31;2.67;;;2.47;;
462;SDS011;218;51.902;9.542;2023-05-19T10:17:58;2.83;;;2.40;;
462;SDS011;218;51.902;9.542;2023-05-19T10:20:27;2.33;;;2.10;;
462;SDS011;218;51.902;9.542;2023-05-19T10:22:55;2.90;;;2.70;;
462;SDS011;218;51.902;9.542;2023-05-19T10:25:22;2.70;;;2.13;;
462;SDS011;218;51.902;9.542;2023-05-19T10:27:51;2.47;;;2.27;;
462;SDS011;218;51.902;9.542;2023-05-19T10:30:22;2.70;;;2.40;;
462;SDS011;218;51.902;9.542;2023-05-19T10:32:53;3.37;;;2.60;;
462;SDS011;218;51.902;9.542;2023-05-19T10:35:26;2.70;;;2.50;;
462;SDS011;218;51.902;9.542;2023-05-19T10:38:05;2.67;;;2.47;;
462;SDS011;218;51.902;9.542;2023-05-19T10:40:42;4.90;;;2.80;;
462;SDS011;218;51.902;9.542;2023-05-19T10:43:22;3.10;;;2.80;;
462;SDS011;218;51.902;9.542;2023-05-19T10:45:56;2.90;;;2.60;;
462;SDS011;218;51.902;9.542;2023-05-19T10:48:23;3.10;;;2.80;;
462;SDS011;218;51.902;9.542;2023-05-19T10:50:52;4.70;;;2.60;;
462;SDS011;218;51.902;9.542;2023-05-19T10:53:20;4.10;;;2.40;;
462;SDS011;218;51.902;9.542;2023-05-19T10:55:55;6.93;;;2.90;;
462;SDS011;218;51.902;9.542;2023-05-19T10:58:35;2.27;;;2.07;;
462;SDS011;218;51.902;9.542;2023-05-19T11:01:07;2.70;;;2.50;;
462;SDS011;218;51.902;9.542;2023-05-19T11:03:44;4.17;;;2.50;;
462;SDS011;218;51.902;9.542;2023-05-19T11:06:19;2.70;;;2.50;;
462;SDS011;218;51.902;9.542;2023-05-19T11:08:57;3.07;;;2.80;;
462;SDS011;218;51.902;9.542;2023-05-19T11:11:26;3.27;;;2.87;;
462;SDS011;218;51.902;9.542;2023-05-19T11:14:09;4.13;;;3.13;;
462;SDS011;218;51.902;9.542;2023-05-19T11:16:38;2.80;;;2.60;;
462;SDS011;218;51.902;9.542;2023-05-19T11:19:07;3.47;;;2.83;;
462;SDS011;218;51.902;9.542;2023-05-19T11:21:46;3.10;;;2.90;;
462;SDS011;218;51.902;9.542;2023-05-19T11:27:17;3.30;;;2.67;;
462;SDS011;218;51.902;9.542;2023-05-19T11:29:45;4.07;;;2.43;;
462;SDS011;218;51.902;9.542;2023-05-19T11:32:13;2.53;;;2.33;;
462;SDS011;218;51.902;9.542;2023-05-19T11:34:42;2.70;;;2.50;;
462;SDS011;218;51.902;9.542;2023-05-19T11:37:10;3.13;;;2.83;;
462;SDS011;218;51.902;9.542;2023-05-19T11:39:39;2.87;;;2.67;;
462;SDS011;218;51.902;9.542;2023-05-19T11:42:07;5.33;;;3.10;;
462;SDS011;218;51.902;9.542;2023-05-19T11:44:35;2.90;;;2.70;;
462;SDS011;218;51.902;9.542;2023-05-19T11:47:02;3.57;;;2.80;;
462;SDS011;218;51.902;9.542;2023-05-19T11:49:29;3.20;;;2.70;;
462;SDS011;218;51.902;9.542;2023-05-19T11:51:58;3.07;;;2.67;;
462;SDS011;218;51.902;9.542;2023-05-19T11:54:28;2.97;;;2.77;;
462;SDS011;218;51.902;9.542;2023-05-19T11:56:58;6.30;;;2.70;;
462;SDS011;218;51.902;9.542;2023-05-19T11:59:30;3.13;;;2.87;;
462;SDS011;218;51.902;9.542;2023-05-19T12:01:59;2.70;;;2.50;;
462;SDS011;218;51.902;9.542;2023-05-19T12:04:28;3.33;;;3.00;;
462;SDS011;218;51.902;9.542;2023-05-19T12:06:55;4.00;;;2.50;;
462;SDS011;218;51.902;9.542;2023-05-19T12:09:24;3.63;;;2.27;;
462;SDS011;218;51.902;9.542;2023-05-19T12:11:54;2.60;;;2.40;;
462;SDS011;218;51.902;9.542;2023-05-19T12:14:25;2.90;;;2.70;;
462;SDS011;218;51.902;9.542;2023-05-19T12:16:55;3.20;;;2.07;;
462;SDS011;218;51.902;9.542;2023-05-19T12:19:23;2.80;;;2.60;;
462;SDS011;218;51.902;9.542;2023-05-19T12:21:51;3.00;;;2.40;;
462;SDS011;218;51.902;9.542;2023-05-19T12:24:18;2.13;;;2.03;;
462;SDS011;218;51.902;9.542;2023-05-19T12:26:46;2.90;;;2.10;;
462;SDS011;218;51.902;9.542;2023-05-19T12:29:14;2.37;;;2.00;;
462;SDS011;218;51.902;9.542;2023-05-19T12:31:42;2.40;;;2.20;;
462;SDS011;218;51.902;9.542;2023-05-19T12:34:12;4.60;;;2.73;;
462;SDS011;218;51.902;9.542;2023-05-19T12:36:39;2.13;;;2.03;;
462;SDS011;218;51.902;9.542;2023-05-19T12:39:06;1.93;;;1.83;;
462;SDS011;218;51.902;9.542;2023-05-19T12:41:33;3.37;;;2.07;;
462;SDS011;218;51.902;9.542;2023-05-19T12:44:04;1.93;;;1.70;;
462;SDS011;218;51.902;9.542;2023-05-19T12:46:39;3.00;;;2.10;;
462;SDS011;218;51.902;9.542;2023-05-19T12:49:08;2.70;;;2.00;;
462;SDS011;218;51.902;9.542;2023-05-19T12:51:35;4.40;;;2.20;;
462;SDS011;218;51.902;9.542;2023-05-19T12:54:02;1.70;;;1.60;;
462;SDS011;218;51.902;9.542;2023-05-19T12:56:29;2.67;;;2.00;;
462;SDS011;218;51.902;9.542;2023-05-19T12:58:56;1.90;;;1.67;;
462;SDS011;218;51.902;9.542;2023-05-19T13:01:27;3.23;;;2.50;;
462;SDS011;218;51.902;9.542;2023-05-19T13:03:55;4.10;;;2.03;;
462;SDS011;218;51.902;9.542;2023-05-19T13:06:23;2.53;;;1.87;;
462;SDS011;218;51.902;9.542;2023-05-19T13:08:51;2.10;;;2.00;;
462;SDS011;218;51.902;9.542;2023-05-19T13:11:18;2.20;;;2.00;;
462;SDS011;218;51.902;9.542;2023-05-19T13:13:45;2.07;;;1.87;;
462;SDS011;218;51.902;9.542;2023-05-19T13:16:12;3.13;;;2.20;;
462;SDS011;218;51.902;9.542;2023-05-19T13:18:38;2.47;;;2.10;;
462;SDS011;218;51.902;9.542;2023-05-19T13:21:05;2.23;;;2.03;;
462;SDS011;218;51.902;9.542;2023-05-19T13:23:34;3.33;;;1.97;;
462;SDS011;218;51.902;9.542;2023-05-19T13:26:01;1.90;;;1.80;;
462;SDS011;218;51.902;9.542;2023-05-19T13:28:30;1.90;;;1.80;;
462;SDS011;218;51.902;9.542;2023-05-19T13:30:57;2.17;;;1.90;;
462;SDS011;218;51.902;9.542;2023-05-19T13:33:24;2.47;;;2.23;;
462;SDS011;218;51.902;9.542;2023-05-19T13:35:58;3.03;;;1.80;;
462;SDS011;218;51.902;9.542;2023-05-19T13:38:25;3.10;;;1.70;;
462;SDS011;218;51.902;9.542;2023-05-19T13:40:57;1.97;;;1.80;;
462;SDS011;218;51.902;9.542;2023-05-19T13:43:24;2.10;;;1.87;;
462;SDS011;218;51.902;9.542;2023-05-19T13:45:51;2.00;;;1.90;;
462;SDS011;218;51.902;9.542;2023-05-19T13:48:18;2.33;;;2.10;;
462;SDS011;218;51.902;9.542;2023-05-19T13:50:45;3.67;;;1.70;;
462;SDS011;218;51.902;9.542;2023-05-19T13:53:12;2.93;;;2.00;;
462;SDS011;218;51.902;9.542;2023-05-19T13:55:39;3.00;;;1.93;;
462;SDS011;218;51.902;9.542;2023-05-19T13:58:07;3.80;;;1.97;;
462;SDS011;218;51.902;9.542;2023-05-19T14:00:35;1.83;;;1.73;;
462;SDS011;218;51.902;9.542;2023-05-19T14:03:02;1.80;;;1.70;;
462;SDS011;218;51.902;9.542;2023-05-19T14:05:30;2.33;;;1.80;;
462;SDS011;218;51.902;9.542;2023-05-19T14:07:57;2.20;;;2.00;;
462;SDS011;218;51.902;9.542;2023-05-19T14:10:25;1.93;;;1.83;;
462;SDS011;218;51.902;9.542;2023-05-19T14:12:52;2.33;;;2.13;;
462;SDS011;218;51.902;9.542;2023-05-19T14:15:21;2.43;;;2.00;;
462;SDS011;218;51.902;9.542;2023-05-19T14:17:48;2.47;;;2.07;;
462;SDS011;218;51.902;9.542;2023-05-19T14:20:17;3.67;;;2.10;;
462;SDS011;218;51.902;9.542;2023-05-19T14:22:44;2.37;;;2.27;;
462;SDS011;218;51.902;9.542;2023-05-19T14:25:11;2.57;;;2.37;;
462;SDS011;218;51.902;9.542;2023-05-19T14:27:37;2.50;;;1.63;;
462;SDS011;218;51.902;9.542;2023-05-19T14:30:05;2.63;;;2.20;;
462;SDS011;218;51.902;9.542;2023-05-19T14:32:34;3.13;;;1.90;;
462;SDS011;218;51.902;9.542;2023-05-19T14:35:01;1.97;;;1.77;;
462;SDS011;218;51.902;9.542;2023-05-19T14:37:28;4.73;;;1.80;;
462;SDS011;218;51.902;9.542;2023-05-19T14:39:56;5.33;;;2.03;;
462;SDS011;218;51.902;9.542;2023-05-19T14:42:23;2.50;;;1.80;;
462;SDS011;218;51.902;9.542;2023-05-19T14:44:50;2.50;;;2.20;;
462;SDS011;218;51.902;9.542;2023-05-19T14:47:17;1.83;;;1.50;;
462;SDS011;218;51.902;9.542;2023-05-19T14:49:45;3.03;;;2.40;;
462;SDS011;218;51.902;9.542;2023-05-19T14:52:12;2.73;;;2.43;;
462;SDS011;218;51.902;9.542;2023-05-19T14:54:39;2.40;;;2.20;;
462;SDS011;218;51.902;9.542;2023-05-19T14:57:06;3.20;;;2.13;;
462;SDS011;218;51.902;9.542;2023-05-19T14:59:35;2.70;;;2.00;;
462;SDS011;218;51.902;9.542;2023-05-19T15:02:02;2.63;;;2.43;;
462;SDS011;218;51.902;9.542;2023-05-19T15:04:29;4.40;;;2.57;;
462;SDS011;218;51.902;9.542;2023-05-19T15:06:58;2.90;;;2.70;;
462;SDS011;218;51.902;9.542;2023-05-19T15:09:25;2.47;;;1.77;;
462;SDS011;218;51.902;9.542;2023-05-19T15:11:51;2.87;;;2.60;;
462;SDS011;218;51.902;9.542;2023-05-19T15:14:18;2.97;;;2.37;;
462;SDS011;218;51.902;9.542;2023-05-19T15:16:46;2.80;;;2.47;;
462;SDS011;218;51.902;9.542;2023-05-19T15:19:13;2.87;;;2.60;;
462;SDS011;218;51.902;9.542;2023-05-19T15:21:39;2.53;;;2.33;;
462;SDS011;218;51.902;9.542;2023-05-19T15:24:09;3.27;;;2.80;;
462;SDS011;218;51.902;9.542;2023-05-19T15:26:36;2.63;;;2.43;;
462;SDS011;218;51.902;9.542;2023-05-19T15:29:03;2.53;;;2.33;;
462;SDS011;218;51.902;9.542;2023-05-19T15:31:30;4.60;;;2.10;;
462;SDS011;218;51.902;9.542;2023-05-19T15:33:57;2.57;;;2.40;;
462;SDS011;218;51.902;9.542;2023-05-19T15:36:24;3.23;;;2.40;;
462;SDS011;218;51.902;9.542;2023-05-19T15:38:51;2.50;;;2.40;;
462;SDS011;218;51.902;9.542;2023-05-19T15:41:19;3.00;;;2.70;;
462;SDS011;218;51.902;9.542;2023-05-19T15:43:46;3.80;;;2.30;;
462;SDS011;218;51.902;9.542;2023-05-19T15:46:13;2.20;;;2.10;;
462;SDS011;218;51.902;9.542;2023-05-19T15:48:43;2.87;;;2.67;;
462;SDS011;218;51.902;9.542;2023-05-19T15:51:11;2.57;;;2.37;;
462;SDS011;218;51.902;9.542;2023-05-19T15:53:38;2.47;;;2.00;;